Time;durP1;ratioP1;P1;durP2;ratioP2;P2;SDS_P1;SDS_P2;PMS_P1;PMS_P2;Temp;Humidity;BMP_temperature;BMP_pressure;BME280_temperature;BME280_humidity;BME280_pressure;Samples;Min_cycle;Max_cycle;Signal;HPM_P1;HPM_P2
2022/02/01 00:03:45;;;;;;;15.25;2.85;;;;;;;7.73;100.00;101969.00;4994158;28;20066;-69
2022/02/01 00:06:17;;;;;;;18.20;3.08;;;;;;;7.64;100.00;101971.69;4977104;28;20096;-70
2022/02/01 00:08:51;;;;;;;17.45;2.53;;;;;;;7.88;100.00;101971.97;4976750;28;20125;-69
2022/02/01 00:12:04;;;;;;;17.80;3.97;;;;;;;7.74;100.00;101969.81;4993652;28;20062;-68
2022/02/01 00:14:17;;;;;;;23.98;3.55;;;;;;;7.68;100.00;101973.91;4988965;28;20220;-68
2022/02/01 00:17:17;;;;;;;13.63;2.65;;;;;;;7.83;100.00;101971.56;4977506;28;20062;-69
2022/02/01 00:41:27;;;;;;;10.73;2.10;;;;;;;7.71;100.00;101981.59;4993151;28;20070;-69
2022/02/01 00:43:53;;;;;;;18.48;3.83;;;;;;;7.88;100.00;101990.63;4977625;28;20468;-69
2022/02/01 00:46:18;;;;;;;13.47;2.27;;;;;;;8.16;100.00;101989.72;4993693;28;20073;-67
2022/02/01 00:48:44;;;;;;;14.60;2.27;;;;;;;7.72;100.00;101990.44;4993494;28;20073;-69
2022/02/01 00:51:13;;;;;;;22.02;2.47;;;;;;;8.27;100.00;101988.66;4993706;28;20346;-68
2022/02/01 00:53:40;;;;;;;11.63;2.22;;;;;;;8.27;100.00;101968.19;4994068;28;20058;-70
2022/02/01 00:56:06;;;;;;;16.63;3.45;;;;;;;8.16;100.00;101968.41;4976107;28;20070;-70
2022/02/01 00:58:32;;;;;;;15.07;2.95;;;;;;;8.28;100.00;101980.53;4975589;28;20126;-69
2022/02/01 01:00:57;;;;;;;24.03;2.47;;;;;;;8.06;100.00;101975.66;4979128;28;20483;-70
2022/02/01 01:03:23;;;;;;;20.73;3.17;;;;;;;7.84;100.00;101959.97;4997012;28;20038;-68
2022/02/01 01:05:49;;;;;;;14.82;2.10;;;;;;;7.86;100.00;101934.00;4996931;28;20474;-70
2022/02/01 01:08:16;;;;;;;17.13;2.83;;;;;;;7.79;100.00;101906.28;4963147;28;20375;-68
2022/02/01 01:10:42;;;;;;;34.95;9.02;;;;;;;7.77;100.00;101918.09;4978993;28;20081;-69
2022/02/01 01:16:09;;;;;;;54.17;11.27;;;;;;;8.17;100.00;101919.47;4995861;28;20042;-67
2022/02/01 01:53:55;;;;;;;20.23;2.22;;;;;;;8.55;100.00;101938.00;4996713;28;20121;-69
2022/02/01 01:56:21;;;;;;;19.95;2.65;;;;;;;8.33;100.00;101950.78;4997152;28;20471;-69
2022/02/01 01:58:47;;;;;;;;;;;;;;;8.59;100.00;101961.50;4995959;28;20042;-69
2022/02/01 02:01:14;;;;;;;13.30;2.07;;;;;;;8.65;100.00;101981.38;4997133;28;19960;-70
2022/02/01 02:03:45;;;;;;;14.73;2.35;;;;;;;8.67;100.00;101968.72;4997496;28;20050;-69
2022/02/01 02:06:12;;;;;;;16.00;2.30;;;;;;;8.38;100.00;101953.81;4999967;28;20062;-69
2022/02/01 02:08:40;;;;;;;20.08;3.63;;;;;;;7.99;100.00;101927.47;5000040;28;20061;-68
2022/02/01 02:11:11;;;;;;;15.27;2.38;;;;;;;8.47;100.00;101947.53;4982977;28;20061;-70
2022/02/01 02:16:24;;;;;;;20.83;3.35;;;;;;;8.45;100.00;101968.19;4999967;28;20465;-69
2022/02/01 02:18:50;;;;;;;14.13;2.80;;;;;;;8.75;100.00;101971.44;4999087;28;20053;-71
2022/02/01 02:21:18;;;;;;;13.98;2.38;;;;;;;8.47;100.00;101966.19;5000020;28;20045;-68
2022/02/01 02:23:44;;;;;;;18.25;3.10;;;;;;;8.64;100.00;101966.38;4998995;28;20034;-70
2022/02/01 02:26:16;;;;;;;13.35;2.10;;;;;;;8.45;100.00;101952.19;4997719;28;20121;-70
2022/02/01 02:28:42;;;;;;;18.80;3.15;;;;;;;8.28;100.00;101950.38;4998300;28;20040;-70
2022/02/01 02:31:07;;;;;;;21.98;3.33;;;;;;;8.54;100.00;101957.66;4980167;28;20347;-69
2022/02/01 02:33:34;;;;;;;24.63;3.00;;;;;;;8.86;100.00;101953.53;4997529;28;20042;-68
2022/02/01 02:36:13;;;;;;;16.20;2.90;;;;;;;8.50;100.00;101956.25;4997313;28;20279;-71
2022/02/01 02:38:49;;;;;;;15.02;2.75;;;;;;;8.63;100.00;101924.69;4979100;28;20278;-72
2022/02/01 02:41:29;;;;;;;23.00;3.70;;;;;;;8.49;100.00;101922.56;4996908;28;20065;-70
2022/02/01 02:46:43;;;;;;;46.78;10.00;;;;;;;8.97;100.00;101937.25;4996034;28;20053;-70
2022/02/01 02:49:14;;;;;;;45.90;10.40;;;;;;;8.61;100.00;101932.84;4996258;28;20116;-70
2022/02/01 02:51:40;;;;;;;25.60;6.35;;;;;;;8.43;100.00;101932.84;4995838;28;20038;-69
2022/02/01 02:54:15;;;;;;;19.33;3.80;;;;;;;8.46;100.00;101934.38;4995240;28;20452;-69
2022/02/01 02:56:45;;;;;;;25.13;6.78;;;;;;;8.50;100.00;101940.25;4996039;28;20042;-69
2022/02/01 02:59:13;;;;;;;46.97;11.63;;;;;;;8.55;100.00;101922.00;4978720;28;20049;-70
2022/02/01 03:01:42;;;;;;;57.75;14.75;;;;;;;8.59;100.00;101932.16;4995870;28;20046;-69
2022/02/01 03:04:08;;;;;;;24.98;6.88;;;;;;;8.25;100.00;101929.34;4977877;28;20070;-67
2022/02/01 03:06:34;;;;;;;28.52;6.10;;;;;;;8.86;100.00;101921.53;4995053;28;20081;-69
2022/02/01 03:09:00;;;;;;;13.15;3.25;;;;;;;8.59;100.00;101923.34;4995105;28;20049;-71
2022/02/01 03:11:26;;;;;;;29.52;5.63;;;;;;;8.63;100.00;101905.19;4994401;28;20050;-69
2022/02/01 03:13:56;;;;;;;26.45;5.45;;;;;;;8.56;100.00;101895.16;4977083;28;20045;-69
2022/02/01 03:21:33;;;;;;;10.00;2.03;;;;;;;8.63;100.00;101863.38;4977418;28;20042;-68
2022/02/01 03:23:58;;;;;;;14.00;2.35;;;;;;;8.38;100.00;101863.19;4995213;28;20125;-69
2022/02/01 03:26:24;;;;;;;10.07;1.90;;;;;;;8.50;100.00;101854.94;4994362;28;20046;-68
2022/02/01 03:28:49;;;;;;;18.43;3.57;;;;;;;8.73;100.00;101849.94;4994749;28;20471;-69
2022/02/01 03:31:16;;;;;;;45.65;10.43;;;;;;;8.64;100.00;101846.38;4994749;28;20039;-67
2022/02/01 03:33:41;;;;;;;28.33;8.15;;;;;;;8.53;100.00;101842.16;4978167;28;20042;-69
2022/02/01 03:36:07;;;;;;;50.25;10.65;;;;;;;8.75;100.00;101838.09;4994709;28;20050;-67
2022/02/01 03:38:33;;;;;;;50.83;9.77;;;;;;;8.66;100.00;101825.72;4995584;28;20436;-68
2022/02/01 03:40:58;;;;;;;42.22;9.63;;;;;;;8.68;100.00;101826.41;4977341;28;20049;-69
2022/02/01 03:43:24;;;;;;;39.65;8.77;;;;;;;8.76;100.00;101820.28;4976854;28;20050;-65
2022/02/01 03:45:50;;;;;;;25.90;6.67;;;;;;;8.69;100.00;101822.72;4994269;28;20117;-69
2022/02/01 03:48:15;;;;;;;22.10;5.40;;;;;;;8.98;100.00;101824.19;4995771;28;20609;-69
2022/02/01 03:50:41;;;;;;;18.38;4.32;;;;;;;8.98;100.00;101818.84;4998420;28;20039;-70
2022/02/01 03:53:09;;;;;;;15.43;2.20;;;;;;;8.79;100.00;101811.94;4978690;28;20070;-70
2022/02/01 03:55:35;;;;;;;14.68;1.95;;;;;;;8.93;100.00;101807.00;4995348;28;20125;-68
2022/02/01 03:58:01;;;;;;;9.23;1.70;;;;;;;8.92;100.00;101811.50;4995378;28;20089;-69
2022/02/01 04:00:27;;;;;;;11.27;2.20;;;;;;;8.79;100.00;101814.63;4995550;28;20450;-65
2022/02/01 04:02:53;;;;;;;14.30;2.00;;;;;;;8.68;100.00;101806.91;4998176;28;20030;-69
2022/02/01 04:05:18;;;;;;;4.65;1.60;;;;;;;8.66;100.00;101801.72;4996447;28;20054;-69
2022/02/01 04:07:47;;;;;;;17.13;2.70;;;;;;;8.81;100.00;101804.63;4995196;28;20451;-70
2022/02/01 04:10:14;;;;;;;9.90;2.13;;;;;;;8.56;100.00;101803.69;4977446;28;20118;-68
2022/02/01 04:12:40;;;;;;;16.27;2.53;;;;;;;8.84;100.00;101811.47;4994550;28;20053;-69
2022/02/01 04:15:08;;;;;;;8.93;1.98;;;;;;;8.75;100.00;101813.25;4995114;28;20133;-70
2022/02/01 04:17:34;;;;;;;19.90;4.30;;;;;;;8.70;100.00;101808.41;4977292;28;20117;-68
2022/02/01 04:20:00;;;;;;;9.73;2.17;;;;;;;8.41;100.00;101803.38;4977513;28;20058;-69
2022/02/01 04:22:25;;;;;;;10.95;1.88;;;;;;;8.47;100.00;101808.91;4995042;28;20459;-69
2022/02/01 04:24:51;;;;;;;10.13;2.40;;;;;;;8.73;100.00;101820.59;4995098;28;20093;-70
2022/02/01 04:27:30;;;;;;;15.20;2.43;;;;;;;8.69;100.00;101814.72;4993769;28;20471;-70
2022/02/01 04:30:07;;;;;;;15.68;2.88;;;;;;;8.58;100.00;101812.34;4960471;28;20737;-68
2022/02/01 04:32:36;;;;;;;9.00;2.30;;;;;;;8.29;100.00;101816.97;4994199;28;20035;-68
2022/02/01 04:35:03;;;;;;;16.65;2.90;;;;;;;8.63;100.00;101810.03;4992666;28;20244;-69
2022/02/01 04:37:29;;;;;;;14.05;2.58;;;;;;;8.66;100.00;101809.72;4993336;28;20061;-69
2022/02/01 04:39:56;;;;;;;12.60;3.40;;;;;;;8.66;100.00;101798.22;4993292;28;20038;-69
2022/02/01 04:42:24;;;;;;;16.08;3.40;;;;;;;8.47;100.00;101797.44;4976162;28;20062;-66
2022/02/01 04:44:49;;;;;;;19.95;2.90;;;;;;;8.31;100.00;101809.66;4975638;28;20081;-68
2022/02/01 04:47:15;;;;;;;13.17;2.43;;;;;;;8.65;100.00;101800.03;4976079;28;20073;-68
2022/02/01 04:49:41;;;;;;;24.75;3.78;;;;;;;8.59;100.00;101795.34;4993525;28;20748;-69
2022/02/01 04:52:06;;;;;;;26.90;2.97;;;;;;;8.58;100.00;101796.34;4992933;28;20038;-69
2022/02/01 04:54:32;;;;;;;13.43;2.42;;;;;;;8.50;100.00;101788.28;4992753;28;20730;-66
2022/02/01 04:56:58;;;;;;;17.13;3.15;;;;;;;8.33;100.00;101790.84;4993536;28;20051;-68
2022/02/01 04:59:23;;;;;;;18.67;3.00;;;;;;;8.76;100.00;101806.94;4975992;28;20034;-68
2022/02/01 05:01:49;;;;;;;13.37;3.37;;;;;;;8.42;100.00;101795.22;4992945;28;20053;-68
2022/02/01 05:04:19;;;;;;;18.40;3.00;;;;;;;8.31;100.00;101787.50;4992155;28;20502;-69
2022/02/01 05:06:53;;;;;;;13.55;3.15;;;;;;;8.80;100.00;101772.78;4993174;28;20081;-69
2022/02/01 05:09:20;;;;;;;13.07;2.13;;;;;;;8.59;100.00;101763.34;4993320;28;20050;-68
2022/02/01 05:11:46;;;;;;;14.07;4.13;;;;;;;8.65;100.00;101748.53;4975482;28;20034;-70
2022/02/01 05:14:19;;;;;;;15.25;2.53;;;;;;;8.25;100.00;101734.81;4992956;28;20146;-67
2022/02/01 05:19:44;;;;;;;23.08;3.97;;;;;;;8.34;100.00;101723.22;4976858;28;20129;-69
2022/02/01 05:22:14;;;;;;;12.32;3.42;;;;;;;7.99;100.00;101720.53;4995584;28;20046;-66
2022/02/01 05:24:40;;;;;;;13.93;2.42;;;;;;;8.28;100.00;101719.34;4996176;28;20474;-70
2022/02/01 05:27:10;;;;;;;13.98;3.08;;;;;;;8.32;100.00;101710.03;4977120;28;20057;-69
2022/02/01 05:29:37;;;;;;;17.48;3.30;;;;;;;8.50;100.00;101700.31;4993160;28;20448;-67
2022/02/01 05:32:15;;;;;;;16.48;3.75;;;;;;;8.41;100.00;101692.25;4992416;28;20125;-68
2022/02/01 05:34:41;;;;;;;15.43;4.03;;;;;;;8.23;100.00;101699.50;4975544;28;20125;-68
2022/02/01 05:37:07;;;;;;;9.50;2.17;;;;;;;8.46;100.00;101689.94;4976044;28;20575;-68
2022/02/01 05:39:32;;;;;;;27.27;4.10;;;;;;;8.71;100.00;101689.25;4992834;28;20050;-69
2022/02/01 05:41:59;;;;;;;15.83;2.57;;;;;;;8.59;100.00;101699.38;4993234;28;20272;-68
2022/02/01 05:44:24;;;;;;;24.63;3.20;;;;;;;8.40;100.00;101708.41;4991503;28;20073;-68
2022/02/01 05:46:50;;;;;;;17.63;3.93;;;;;;;8.45;100.00;101698.13;4994464;28;20077;-68
2022/02/01 05:49:19;;;;;;;18.92;3.22;;;;;;;8.52;100.00;101688.50;4994799;28;20038;-70
2022/02/01 05:51:49;;;;;;;13.50;3.10;;;;;;;8.23;100.00;101680.84;4979024;28;20038;-69
2022/02/01 05:54:16;;;;;;;19.48;2.95;;;;;;;8.37;100.00;101682.06;4979245;28;20049;-68
2022/02/01 05:56:42;;;;;;;14.57;2.60;;;;;;;8.40;100.00;101661.28;4995690;28;20030;-65
2022/02/01 05:59:07;;;;;;;14.30;2.70;;;;;;;8.46;100.00;101652.63;4997049;28;20477;-69
2022/02/01 06:01:33;;;;;;;26.40;3.67;;;;;;;8.47;100.00;101648.97;4995069;28;20038;-67
2022/02/01 06:03:58;;;;;;;21.03;3.57;;;;;;;8.44;100.00;101651.13;4996241;28;20038;-69
2022/02/01 06:06:24;;;;;;;15.23;3.50;;;;;;;8.55;100.00;101652.69;4996332;28;20645;-69
2022/02/01 06:08:49;;;;;;;18.55;2.80;;;;;;;8.47;100.00;101650.81;4994527;28;20046;-70
2022/02/01 06:11:15;;;;;;;13.17;3.23;;;;;;;8.70;100.00;101637.72;4995757;28;20126;-69
2022/02/01 06:13:41;;;;;;;14.87;3.10;;;;;;;8.59;100.00;101641.53;4995956;28;20054;-67
2022/02/01 06:16:07;;;;;;;21.97;3.60;;;;;;;8.48;100.00;101633.81;4978860;28;20502;-68
2022/02/01 06:18:33;;;;;;;22.73;5.22;;;;;;;8.38;100.00;101655.28;4995565;28;20621;-69
2022/02/01 06:21:00;;;;;;;16.00;3.20;;;;;;;8.36;100.00;101651.94;4978336;28;20057;-68
2022/02/01 06:23:27;;;;;;;22.02;5.57;;;;;;;8.26;100.00;101641.41;4978310;28;20158;-68
2022/02/01 06:25:55;;;;;;;16.70;4.00;;;;;;;8.31;100.00;101640.91;4995540;28;20031;-69
2022/02/01 06:28:24;;;;;;;13.57;5.07;;;;;;;8.56;100.00;101647.19;4995249;28;20172;-68
2022/02/01 06:30:50;;;;;;;19.23;4.40;;;;;;;8.23;100.00;101644.38;4995041;28;20038;-66
2022/02/01 06:33:17;;;;;;;19.90;5.25;;;;;;;8.43;100.00;101636.94;4995220;28;20119;-66
2022/02/01 06:35:43;;;;;;;25.23;5.47;;;;;;;8.59;100.00;101632.72;4995383;28;20590;-68
2022/02/01 06:38:09;;;;;;;16.98;4.95;;;;;;;8.31;100.00;101619.59;4995210;28;20088;-68
2022/02/01 06:40:35;;;;;;;23.13;5.13;;;;;;;8.29;100.00;101616.22;4995157;28;20045;-71
2022/02/01 06:43:02;;;;;;;21.92;6.00;;;;;;;8.30;100.00;101621.41;4995321;28;20093;-69
2022/02/01 06:45:29;;;;;;;25.05;6.57;;;;;;;8.77;100.00;101597.09;4977675;28;20041;-69
2022/02/01 06:47:55;;;;;;;25.88;6.88;;;;;;;8.64;100.00;101601.06;4995079;28;20034;-72
2022/02/01 06:50:22;;;;;;;30.95;7.57;;;;;;;8.78;100.00;101601.41;4994720;28;20034;-71
2022/02/01 06:52:57;;;;;;;16.77;7.03;;;;;;;8.54;100.00;101613.72;4996307;28;20417;-70
2022/02/01 06:58:09;;;;;;;28.92;8.57;;;;;;;8.60;100.00;101591.72;4994209;28;20038;-70
2022/02/01 07:00:35;;;;;;;31.58;8.90;;;;;;;8.77;100.00;101589.09;4994267;28;20505;-71
2022/02/01 07:03:01;;;;;;;33.00;8.38;;;;;;;8.83;100.00;101589.22;4994537;28;20066;-70
2022/02/01 07:05:26;;;;;;;39.10;9.53;;;;;;;8.85;100.00;101583.75;4994361;28;20042;-71
2022/02/01 07:07:52;;;;;;;38.75;11.63;;;;;;;8.42;100.00;101589.97;4976850;28;20641;-70
2022/02/01 07:10:18;;;;;;;43.95;10.55;;;;;;;8.45;100.00;101581.66;4994123;28;20058;-71
2022/02/01 07:12:44;;;;;;;33.88;10.23;;;;;;;8.71;100.00;101588.72;4960764;28;20051;-72
2022/02/01 07:15:10;;;;;;;40.13;12.75;;;;;;;8.57;100.00;101582.19;4977300;28;20078;-74
2022/02/01 07:17:55;;;;;;;40.13;12.75;;;;;;;8.61;100.00;101569.38;4994177;28;20076;-74
2022/02/01 07:20:22;;;;;;;45.67;11.93;;;;;;;8.57;100.00;101573.38;4977106;28;20541;-74
2022/02/01 07:22:49;;;;;;;29.98;10.07;;;;;;;8.65;100.00;101572.53;4994754;28;20049;-73
2022/02/01 07:25:24;;;;;;;34.53;12.65;;;;;;;8.86;100.00;101564.91;4961497;28;20057;-74
2022/02/01 07:27:50;;;;;;;46.03;14.25;;;;;;;8.97;100.00;101569.06;4994531;28;20038;-74
2022/02/01 07:30:23;;;;;;;46.38;15.75;;;;;;;8.92;100.00;101574.06;4994517;28;20050;-74
2022/02/01 07:32:50;;;;;;;51.63;13.73;;;;;;;8.78;100.00;101558.75;4993911;28;20074;-73
2022/02/01 07:35:16;;;;;;;38.22;13.45;;;;;;;8.85;100.00;101551.75;4994255;28;20042;-75
2022/02/01 07:37:43;;;;;;;50.78;15.35;;;;;;;9.04;100.00;101547.88;4994182;28;20537;-74
2022/02/01 07:40:11;;;;;;;38.37;13.83;;;;;;;8.75;100.00;101554.56;4976785;28;20432;-74
2022/02/01 07:42:36;;;;;;;63.67;17.15;;;;;;;8.84;100.00;101534.88;4976740;28;20311;-75
2022/02/01 07:45:05;;;;;;;53.03;17.10;;;;;;;9.11;100.00;101519.56;4976719;28;20092;-75
2022/02/01 07:47:30;;;;;;;37.53;13.15;;;;;;;8.80;100.00;101524.75;4976752;28;20077;-75
2022/02/01 07:49:56;;;;;;;46.93;17.63;;;;;;;9.04;100.00;101507.88;4994042;28;20038;-75
2022/02/01 07:52:22;;;;;;;43.75;17.27;;;;;;;9.12;100.00;101515.03;4977029;28;20085;-76
2022/02/01 07:54:47;;;;;;;33.90;15.75;;;;;;;9.17;100.00;101507.34;4993888;28;20467;-68
2022/02/01 07:57:14;;;;;;;37.00;15.60;;;;;;;9.20;100.00;101501.66;4944843;28;20133;-77
2022/02/01 07:59:40;;;;;;;39.50;14.13;;;;;;;9.04;100.00;101516.72;4976715;28;20043;-77
2022/02/01 08:02:17;;;;;;;37.83;16.00;;;;;;;9.22;100.00;101512.19;4993846;28;20046;-75
2022/02/01 08:04:42;;;;;;;48.58;16.55;;;;;;;9.18;100.00;101493.00;4993779;28;20042;-77
2022/02/01 08:07:08;;;;;;;19.70;11.67;;;;;;;8.94;100.00;101513.38;4993668;28;20089;-78
2022/02/01 08:09:37;;;;;;;31.30;13.40;;;;;;;8.99;100.00;101495.03;4975199;28;20348;-76
2022/02/01 08:12:12;;;;;;;34.05;15.68;;;;;;;9.28;100.00;101501.66;4976015;28;20046;-76
2022/02/01 08:17:47;;;;;;;32.70;14.57;;;;;;;9.24;100.00;101494.16;4971594;28;20058;-75
2022/02/01 08:20:20;;;;;;;32.08;12.25;;;;;;;9.13;100.00;101498.88;4993602;28;20042;-76
2022/02/01 08:25:12;;;;;;;29.80;14.23;;;;;;;8.92;100.00;101487.88;4994240;28;20231;-78
2022/02/01 08:27:39;;;;;;;;;;;;;;;8.98;100.00;101487.22;4994365;28;20037;-76
2022/02/01 08:30:09;;;;;;;31.02;13.40;;;;;;;9.04;100.00;101482.03;4993734;28;19990;-76
2022/02/01 08:32:36;;;;;;;27.08;14.45;;;;;;;9.02;100.00;101477.84;4993655;28;20098;-76
2022/02/01 08:35:02;;;;;;;36.60;16.15;;;;;;;9.25;100.00;101453.97;4993612;28;20046;-75
2022/02/01 08:37:28;;;;;;;34.97;16.67;;;;;;;9.05;100.00;101456.16;4993219;28;20045;-75
2022/02/01 08:43:34;;;;;;;;;;;;;;;9.21;100.00;101452.63;4979503;28;20150;-75
2022/02/01 08:46:00;;;;;;;26.50;13.10;;;;;;;8.84;100.00;101446.06;4974033;28;19965;-77
2022/02/01 08:48:25;;;;;;;28.02;14.10;;;;;;;9.37;100.00;101456.25;4974302;28;20086;-75
2022/02/01 08:50:51;;;;;;;27.60;14.95;;;;;;;9.27;100.00;101425.28;4974392;28;20472;-76
2022/02/01 08:53:24;;;;;;;24.55;13.95;;;;;;;9.04;100.00;101426.00;4957214;28;20050;-78
2022/02/01 08:58:22;;;;;;;27.77;12.82;;;;;;;9.37;100.00;101397.53;4973559;28;20499;-77
2022/02/01 09:00:47;;;;;;;28.80;13.30;;;;;;;9.08;100.00;101373.09;4974452;28;20039;-78
2022/02/01 09:03:13;;;;;;;27.52;13.88;;;;;;;9.15;100.00;101375.94;4973930;28;20178;-76
2022/02/01 09:05:40;;;;;;;26.52;11.93;;;;;;;9.09;100.00;101366.78;4973772;28;20118;-78
2022/02/01 09:08:05;;;;;;;;;;;;;;;9.08;100.00;101364.28;4973900;28;20042;-77
2022/02/01 09:10:31;;;;;;;26.00;11.80;;;;;;;9.20;100.00;101360.22;4975460;28;19979;-78
2022/02/01 09:12:58;;;;;;;24.50;12.00;;;;;;;9.09;100.00;101358.75;4974234;28;20027;-72
2022/02/01 09:15:26;;;;;;;23.70;12.50;;;;;;;9.08;100.00;101356.28;4974773;28;20118;-78
2022/02/01 09:17:52;;;;;;;29.58;13.07;;;;;;;9.33;100.00;101359.66;4941557;28;20344;-77
2022/02/01 09:20:19;;;;;;;;;;;;;;;9.36;100.00;101348.66;4957803;28;20567;-78
2022/02/01 09:22:44;;;;;;;21.45;11.10;;;;;;;9.15;100.00;101327.91;4943807;28;20363;-77
2022/02/01 09:25:10;;;;;;;27.80;13.77;;;;;;;9.17;100.00;101324.06;4944241;28;20050;-78
2022/02/01 09:27:36;;;;;;;22.40;11.10;;;;;;;9.33;100.00;101336.47;4960666;28;20091;-78
2022/02/01 09:30:03;;;;;;;26.90;12.73;;;;;;;9.67;100.00;101318.44;4978966;28;20335;-78
2022/02/01 09:32:29;;;;;;;25.25;12.15;;;;;;;9.43;100.00;101314.06;4981266;28;20066;-77
2022/02/01 09:34:55;;;;;;;24.33;12.52;;;;;;;9.35;100.00;101303.44;4967906;28;20046;-76
2022/02/01 09:37:21;;;;;;;23.10;12.27;;;;;;;9.67;100.00;101280.19;4983382;28;20030;-76
2022/02/01 09:39:47;;;;;;;21.42;11.50;;;;;;;9.64;100.00;101272.53;4981310;28;20042;-77
2022/02/01 09:42:13;;;;;;;20.75;11.10;;;;;;;9.51;100.00;101270.47;4980044;28;20046;-75
2022/02/01 09:44:38;;;;;;;18.08;9.73;;;;;;;9.38;100.00;101276.41;4977302;28;20062;-76
2022/02/01 09:47:04;;;;;;;20.45;9.80;;;;;;;9.66;100.00;101251.84;4976922;28;20380;-77
2022/02/01 09:49:30;;;;;;;24.35;11.20;;;;;;;9.51;100.00;101254.44;4961500;28;20046;-74
2022/02/01 09:51:58;;;;;;;21.57;11.57;;;;;;;9.71;100.00;101262.81;4983113;28;20047;-76
2022/02/01 09:54:29;;;;;;;24.35;11.02;;;;;;;9.69;100.00;101251.50;4986606;28;20288;-76
2022/02/01 09:56:58;;;;;;;25.73;12.73;;;;;;;9.84;100.00;101273.72;4985356;28;20115;-74
2022/02/01 09:59:35;;;;;;;24.00;12.25;;;;;;;9.89;100.00;101279.34;4980324;28;20047;-75
2022/02/01 10:02:08;;;;;;;26.77;13.00;;;;;;;9.76;100.00;101287.97;4979673;28;20038;-74
2022/02/01 10:04:35;;;;;;;29.02;13.40;;;;;;;9.59;100.00;101281.94;4961843;28;20050;-74
2022/02/01 10:07:09;;;;;;;30.73;13.10;;;;;;;9.80;100.00;101272.41;4978985;28;20062;-73
2022/02/01 10:09:46;;;;;;;27.90;13.05;;;;;;;10.18;100.00;101267.09;4946875;28;20050;-75
2022/02/01 10:12:17;;;;;;;28.67;14.32;;;;;;;10.18;100.00;101269.75;4960492;28;20479;-74
2022/02/01 10:14:51;;;;;;;27.95;13.35;;;;;;;10.00;100.00;101255.91;4976651;28;20467;-74
2022/02/01 10:18:09;;;;;;;29.77;14.27;;;;;;;10.27;100.00;101258.97;4976338;28;20046;-76
2022/02/01 10:20:34;;;;;;;26.83;12.88;;;;;;;10.21;100.00;101262.38;4956295;28;20446;-76
2022/02/01 10:23:00;;;;;;;32.67;13.38;;;;;;;10.01;100.00;101258.38;4959249;28;20110;-75
2022/02/01 10:25:30;;;;;;;28.10;12.57;;;;;;;10.14;100.00;101257.75;4976362;28;20431;-76
2022/02/01 10:27:58;;;;;;;26.48;12.90;;;;;;;9.87;100.00;101253.84;4976195;28;20051;-75
2022/02/01 10:30:32;;;;;;;26.05;12.98;;;;;;;10.20;100.00;101253.53;4975948;28;20129;-75
2022/02/01 10:38:10;;;;;;;22.27;11.57;;;;;;;10.33;100.00;101263.56;4975939;28;20125;-74
2022/02/01 10:40:50;;;;;;;31.73;12.35;;;;;;;10.21;100.00;101249.03;4975969;28;20047;-76
2022/02/01 10:43:16;;;;;;;21.65;10.63;;;;;;;10.20;100.00;101240.16;4958179;28;20395;-75
2022/02/01 10:45:44;;;;;;;24.05;11.55;;;;;;;10.83;100.00;101230.94;4942897;28;20064;-77
2022/02/01 10:48:14;;;;;;;30.50;13.25;;;;;;;10.38;100.00;101226.44;4975476;28;20146;-75
2022/02/01 10:50:40;;;;;;;38.90;14.57;;;;;;;10.58;100.00;101229.41;4958154;28;20367;-75
2022/02/01 10:53:19;;;;;;;40.67;14.30;;;;;;;10.85;100.00;101211.00;4975500;28;20129;-76
2022/02/01 10:55:48;;;;;;;26.90;11.93;;;;;;;10.57;100.00;101221.56;4958043;28;20097;-77
2022/02/01 10:58:15;;;;;;;37.95;13.05;;;;;;;10.88;100.00;101215.97;4975541;28;20462;-75
2022/02/01 11:00:47;;;;;;;40.75;11.30;;;;;;;10.80;100.00;101216.09;4975741;28;20042;-75
2022/02/01 11:03:14;;;;;;;56.58;14.60;;;;;;;10.73;100.00;101204.50;4974192;28;20050;-75
2022/02/01 11:05:48;;;;;;;63.88;15.95;;;;;;;10.86;100.00;101225.22;4958485;28;20141;-78
2022/02/01 11:08:18;;;;;;;54.50;15.15;;;;;;;10.73;100.00;101207.19;4975787;28;20065;-76
2022/02/01 11:10:51;;;;;;;60.75;16.65;;;;;;;11.07;100.00;101204.84;4957765;28;20486;-76
2022/02/01 11:13:17;;;;;;;71.85;19.27;;;;;;;11.62;100.00;101206.00;4943563;28;20074;-76
2022/02/01 11:16:00;;;;;;;62.27;18.60;;;;;;;11.31;100.00;101204.50;4977457;28;20035;-76
2022/02/01 11:18:28;;;;;;;58.25;15.95;;;;;;;11.27;100.00;101194.38;4974473;28;20789;-76
2022/02/01 11:21:07;;;;;;;48.65;14.55;;;;;;;11.18;100.00;101185.63;4975349;28;20193;-78
2022/02/01 11:23:58;;;;;;;67.13;17.42;;;;;;;11.12;100.00;101183.72;4976675;28;20039;-77
2022/02/01 11:26:35;;;;;;;50.72;14.23;;;;;;;11.69;100.00;101178.44;4977552;28;20047;-77
2022/02/01 11:31:49;;;;;;;41.67;13.73;;;;;;;11.32;100.00;101192.78;4957406;28;20053;-76
2022/02/01 11:34:30;;;;;;;47.22;14.55;;;;;;;11.53;100.00;101183.03;4975371;28;20117;-77
2022/02/01 11:37:10;;;;;;;47.00;13.65;;;;;;;11.40;100.00;101178.41;4974835;28;20058;-78
2022/02/01 11:39:50;;;;;;;77.43;21.13;;;;;;;11.57;100.00;101160.22;4974787;28;20070;-77
2022/02/01 11:42:17;;;;;;;78.45;19.77;;;;;;;12.03;100.00;101153.53;4957978;28;20046;-74
2022/02/01 11:44:43;;;;;;;51.38;15.18;;;;;;;11.83;100.00;101141.84;4974767;28;20467;-77
2022/02/01 11:47:12;;;;;;;54.63;17.02;;;;;;;12.04;100.00;101144.47;4941980;28;20090;-76
2022/02/01 11:49:53;;;;;;;49.97;15.05;;;;;;;11.58;100.00;101134.25;4975599;28;20035;-77
2022/02/01 11:52:21;;;;;;;68.97;19.75;;;;;;;11.75;100.00;101138.31;4974783;28;20035;-78
2022/02/01 11:54:48;;;;;;;76.00;20.80;;;;;;;11.78;100.00;101123.69;4976589;28;20085;-78
2022/02/01 11:57:14;;;;;;;44.67;15.52;;;;;;;11.55;100.00;101130.13;4964482;28;20109;-78
2022/02/01 11:59:59;;;;;;;42.30;15.82;;;;;;;11.57;100.00;101133.44;4958945;28;20043;-79
2022/02/01 12:02:31;;;;;;;38.38;14.18;;;;;;;12.08;100.00;101133.34;4976936;28;20085;-77
2022/02/01 12:05:18;;;;;;;36.70;14.45;;;;;;;11.69;100.00;101139.09;4975114;28;20061;-78
2022/02/01 12:08:01;;;;;;;29.10;12.60;;;;;;;11.55;100.00;101126.63;4975025;28;20074;-77
2022/02/01 12:10:27;;;;;;;39.30;15.57;;;;;;;11.97;100.00;101137.38;4958252;28;20047;-75
2022/02/01 12:12:57;;;;;;;38.42;16.67;;;;;;;12.11;100.00;101120.38;4941827;28;20406;-76
2022/02/01 12:15:29;;;;;;;32.20;12.43;;;;;;;11.66;100.00;101125.25;4957541;28;20050;-77
2022/02/01 12:18:05;;;;;;;41.42;14.68;;;;;;;11.89;100.00;101111.59;4974693;28;20479;-77
2022/02/01 12:20:34;;;;;;;35.20;13.73;;;;;;;11.77;100.00;101116.69;4975567;28;20349;-77
2022/02/01 12:23:17;;;;;;;33.88;13.30;;;;;;;11.87;100.00;101093.03;4974865;28;20061;-76
2022/02/01 12:25:42;;;;;;;46.13;13.23;;;;;;;12.16;100.00;101099.16;4957034;28;20035;-77
2022/02/01 12:28:23;;;;;;;31.60;13.70;;;;;;;12.20;100.00;101091.56;4957298;28;20120;-76
2022/02/01 12:30:51;;;;;;;51.25;13.77;;;;;;;12.40;100.00;101091.63;4974166;28;20070;-76
2022/02/01 12:33:27;;;;;;;38.75;13.55;;;;;;;12.21;100.00;101082.50;4974639;28;20037;-77
2022/02/01 12:35:55;;;;;;;45.05;12.63;;;;;;;12.25;100.00;101094.47;4974227;28;20074;-76
2022/02/01 12:38:25;;;;;;;41.78;12.95;;;;;;;12.48;100.00;101078.06;4974391;28;20097;-77
2022/02/01 12:40:58;;;;;;;28.42;12.52;;;;;;;12.40;100.00;101078.22;4974215;28;20053;-76
2022/02/01 12:43:28;;;;;;;48.47;13.10;;;;;;;12.47;100.00;101079.09;4953721;28;20141;-77
2022/02/01 12:49:03;;;;;;;23.25;9.73;;;;;;;12.60;100.00;101080.97;4933883;29;20050;-77
2022/02/01 12:51:47;;;;;;;21.50;9.57;;;;;;;12.65;100.00;101066.13;4933280;29;20044;-77
2022/02/01 12:54:33;;;;;;;20.85;8.57;;;;;;;12.74;100.00;101076.44;4929970;29;20065;-77
2022/02/01 12:57:11;;;;;;;22.47;8.20;;;;;;;12.44;100.00;101065.25;4962598;29;20130;-76
2022/02/01 12:59:44;;;;;;;20.63;6.80;;;;;;;12.98;100.00;101054.56;4961658;29;20355;-76
2022/02/01 13:02:15;;;;;;;21.73;6.68;;;;;;;12.63;100.00;101060.94;4959184;29;20043;-77
2022/02/01 13:04:42;;;;;;;17.70;7.73;;;;;;;12.95;100.00;101046.94;4941558;29;20043;-77